sensor_id;sensor_type;location;lat;lon;timestamp;temperature;humidity
30385;DHT22;17181;51.002;4.096;2023-06-26T00:01:04;23.50;72.40
30385;DHT22;17181;51.002;4.096;2023-06-26T00:03:30;23.50;72.40
30385;DHT22;17181;51.002;4.096;2023-06-26T00:05:58;23.50;72.50
30385;DHT22;17181;51.002;4.096;2023-06-26T00:08:26;23.50;72.60
30385;DHT22;17181;51.002;4.096;2023-06-26T00:10:52;23.40;72.40
30385;DHT22;17181;51.002;4.096;2023-06-26T00:13:19;23.30;71.80
30385;DHT22;17181;51.002;4.096;2023-06-26T00:15:44;23.20;71.50
30385;DHT22;17181;51.002;4.096;2023-06-26T00:18:10;23.10;71.40
30385;DHT22;17181;51.002;4.096;2023-06-26T00:20:36;23.00;71.20
30385;DHT22;17181;51.002;4.096;2023-06-26T00:23:02;23.00;71.20
30385;DHT22;17181;51.002;4.096;2023-06-26T00:25:33;22.90;71.30
30385;DHT22;17181;51.002;4.096;2023-06-26T00:27:59;22.90;71.40
30385;DHT22;17181;51.002;4.096;2023-06-26T00:30:24;22.90;71.70
30385;DHT22;17181;51.002;4.096;2023-06-26T00:32:50;22.90;71.90
30385;DHT22;17181;51.002;4.096;2023-06-26T00:35:16;22.80;72.10
30385;DHT22;17181;51.002;4.096;2023-06-26T00:37:44;22.80;72.50
30385;DHT22;17181;51.002;4.096;2023-06-26T00:40:10;22.70;72.70
30385;DHT22;17181;51.002;4.096;2023-06-26T00:42:36;22.70;72.90
30385;DHT22;17181;51.002;4.096;2023-06-26T00:45:01;22.70;73.50
30385;DHT22;17181;51.002;4.096;2023-06-26T00:47:27;22.60;73.90
30385;DHT22;17181;51.002;4.096;2023-06-26T00:49:54;22.60;74.30
30385;DHT22;17181;51.002;4.096;2023-06-26T00:52:21;22.50;74.60
30385;DHT22;17181;51.002;4.096;2023-06-26T00:54:47;22.40;74.90
30385;DHT22;17181;51.002;4.096;2023-06-26T00:57:13;22.40;75.10
30385;DHT22;17181;51.002;4.096;2023-06-26T00:59:39;22.30;75.30
30385;DHT22;17181;51.002;4.096;2023-06-26T01:02:05;22.30;75.70
30385;DHT22;17181;51.002;4.096;2023-06-26T01:04:32;22.30;75.80
30385;DHT22;17181;51.002;4.096;2023-06-26T01:06:59;22.30;76.20
30385;DHT22;17181;51.002;4.096;2023-06-26T01:09:27;22.20;76.50
30385;DHT22;17181;51.002;4.096;2023-06-26T01:11:53;22.20;76.70
30385;DHT22;17181;51.002;4.096;2023-06-26T01:14:20;22.10;76.80
30385;DHT22;17181;51.002;4.096;2023-06-26T01:16:46;22.10;76.80
30385;DHT22;17181;51.002;4.096;2023-06-26T01:19:27;22.10;77.10
30385;DHT22;17181;51.002;4.096;2023-06-26T01:24:45;22.00;77.80
30385;DHT22;17181;51.002;4.096;2023-06-26T01:27:14;22.00;77.90
30385;DHT22;17181;51.002;4.096;2023-06-26T01:29:41;21.90;77.90
30385;DHT22;17181;51.002;4.096;2023-06-26T01:32:08;21.90;78.20
30385;DHT22;17181;51.002;4.096;2023-06-26T01:34:34;21.90;78.50
30385;DHT22;17181;51.002;4.096;2023-06-26T01:37:00;21.90;78.90
30385;DHT22;17181;51.002;4.096;2023-06-26T01:39:26;21.80;79.30
30385;DHT22;17181;51.002;4.096;2023-06-26T01:41:51;21.80;79.50
30385;DHT22;17181;51.002;4.096;2023-06-26T01:44:28;21.80;79.90
30385;DHT22;17181;51.002;4.096;2023-06-26T01:47:00;21.70;80.10
30385;DHT22;17181;51.002;4.096;2023-06-26T01:49:47;21.70;80.40
30385;DHT22;17181;51.002;4.096;2023-06-26T01:52:40;21.70;80.60
30385;DHT22;17181;51.002;4.096;2023-06-26T01:55:34;21.60;81.10
30385;DHT22;17181;51.002;4.096;2023-06-26T01:58:02;21.60;81.60
30385;DHT22;17181;51.002;4.096;2023-06-26T02:00:29;21.50;81.70
30385;DHT22;17181;51.002;4.096;2023-06-26T02:02:57;21.50;82.00
30385;DHT22;17181;51.002;4.096;2023-06-26T02:05:23;21.50;82.60
30385;DHT22;17181;51.002;4.096;2023-06-26T02:07:49;21.50;82.70
30385;DHT22;17181;51.002;4.096;2023-06-26T02:10:15;21.50;84.30
30385;DHT22;17181;51.002;4.096;2023-06-26T02:12:41;21.40;83.70
30385;DHT22;17181;51.002;4.096;2023-06-26T02:15:08;21.40;84.60
30385;DHT22;17181;51.002;4.096;2023-06-26T02:17:34;21.30;85.50
30385;DHT22;17181;51.002;4.096;2023-06-26T02:19:59;21.30;85.90
30385;DHT22;17181;51.002;4.096;2023-06-26T02:22:25;21.30;86.40
30385;DHT22;17181;51.002;4.096;2023-06-26T02:24:51;21.20;86.90
30385;DHT22;17181;51.002;4.096;2023-06-26T02:27:17;21.20;86.90
30385;DHT22;17181;51.002;4.096;2023-06-26T02:29:43;21.20;87.90
30385;DHT22;17181;51.002;4.096;2023-06-26T02:32:09;21.10;88.60
30385;DHT22;17181;51.002;4.096;2023-06-26T02:34:35;21.00;89.10
30385;DHT22;17181;51.002;4.096;2023-06-26T02:37:01;20.90;90.10
30385;DHT22;17181;51.002;4.096;2023-06-26T02:39:27;20.90;90.30
30385;DHT22;17181;51.002;4.096;2023-06-26T02:41:54;20.80;90.20
30385;DHT22;17181;51.002;4.096;2023-06-26T02:44:22;20.70;90.50
30385;DHT22;17181;51.002;4.096;2023-06-26T02:46:48;20.70;90.60
30385;DHT22;17181;51.002;4.096;2023-06-26T02:49:14;20.70;90.80
30385;DHT22;17181;51.002;4.096;2023-06-26T02:51:40;20.60;91.30
30385;DHT22;17181;51.002;4.096;2023-06-26T02:54:13;20.50;91.60
30385;DHT22;17181;51.002;4.096;2023-06-26T02:56:41;20.50;92.10
30385;DHT22;17181;51.002;4.096;2023-06-26T02:59:07;20.50;92.20
30385;DHT22;17181;51.002;4.096;2023-06-26T03:01:32;20.40;92.50
30385;DHT22;17181;51.002;4.096;2023-06-26T03:03:58;20.30;92.80
30385;DHT22;17181;51.002;4.096;2023-06-26T03:06:28;20.30;93.10
30385;DHT22;17181;51.002;4.096;2023-06-26T03:08:54;20.30;93.40
30385;DHT22;17181;51.002;4.096;2023-06-26T03:11:20;20.20;93.80
30385;DHT22;17181;51.002;4.096;2023-06-26T03:13:46;20.20;94.10
30385;DHT22;17181;51.002;4.096;2023-06-26T03:16:13;20.10;94.10
30385;DHT22;17181;51.002;4.096;2023-06-26T03:18:38;20.10;94.50
30385;DHT22;17181;51.002;4.096;2023-06-26T03:21:04;20.00;95.00
30385;DHT22;17181;51.002;4.096;2023-06-26T03:23:30;20.00;95.50
30385;DHT22;17181;51.002;4.096;2023-06-26T03:25:56;19.90;95.90
30385;DHT22;17181;51.002;4.096;2023-06-26T03:28:26;19.90;96.20
30385;DHT22;17181;51.002;4.096;2023-06-26T03:30:52;19.90;96.50
30385;DHT22;17181;51.002;4.096;2023-06-26T03:33:18;19.90;96.80
30385;DHT22;17181;51.002;4.096;2023-06-26T03:35:44;19.80;97.20
30385;DHT22;17181;51.002;4.096;2023-06-26T03:38:12;19.70;97.60
30385;DHT22;17181;51.002;4.096;2023-06-26T03:40:40;19.70;98.00
30385;DHT22;17181;51.002;4.096;2023-06-26T03:43:06;19.70;98.20
30385;DHT22;17181;51.002;4.096;2023-06-26T03:45:42;19.70;98.40
30385;DHT22;17181;51.002;4.096;2023-06-26T03:48:08;19.70;98.50
30385;DHT22;17181;51.002;4.096;2023-06-26T03:50:35;19.70;99.00
30385;DHT22;17181;51.002;4.096;2023-06-26T03:53:02;19.60;99.30
30385;DHT22;17181;51.002;4.096;2023-06-26T03:55:27;19.60;99.50
30385;DHT22;17181;51.002;4.096;2023-06-26T03:57:53;19.60;99.80
30385;DHT22;17181;51.002;4.096;2023-06-26T04:00:19;19.60;99.90
30385;DHT22;17181;51.002;4.096;2023-06-26T04:02:45;19.50;99.90
30385;DHT22;17181;51.002;4.096;2023-06-26T04:05:12;19.50;99.90
30385;DHT22;17181;51.002;4.096;2023-06-26T04:07:38;19.40;99.90
30385;DHT22;17181;51.002;4.096;2023-06-26T04:10:05;19.40;99.90
30385;DHT22;17181;51.002;4.096;2023-06-26T04:12:32;19.40;99.90
30385;DHT22;17181;51.002;4.096;2023-06-26T04:14:58;19.30;99.90
30385;DHT22;17181;51.002;4.096;2023-06-26T04:17:24;19.30;99.90
30385;DHT22;17181;51.002;4.096;2023-06-26T04:19:50;19.30;99.90
30385;DHT22;17181;51.002;4.096;2023-06-26T04:22:15;19.20;99.90
30385;DHT22;17181;51.002;4.096;2023-06-26T04:24:41;19.20;99.90
30385;DHT22;17181;51.002;4.096;2023-06-26T04:27:07;19.10;99.90
30385;DHT22;17181;51.002;4.096;2023-06-26T04:29:33;19.10;99.90
30385;DHT22;17181;51.002;4.096;2023-06-26T04:31:58;19.10;99.90
30385;DHT22;17181;51.002;4.096;2023-06-26T04:34:25;19.10;99.90
30385;DHT22;17181;51.002;4.096;2023-06-26T04:36:51;19.10;99.90
30385;DHT22;17181;51.002;4.096;2023-06-26T04:39:17;19.10;99.90
30385;DHT22;17181;51.002;4.096;2023-06-26T04:41:43;19.10;99.90
30385;DHT22;17181;51.002;4.096;2023-06-26T04:44:09;19.10;99.90
30385;DHT22;17181;51.002;4.096;2023-06-26T04:46:37;19.10;99.90
30385;DHT22;17181;51.002;4.096;2023-06-26T04:49:09;19.10;99.90
30385;DHT22;17181;51.002;4.096;2023-06-26T04:51:36;19.10;99.90
30385;DHT22;17181;51.002;4.096;2023-06-26T04:54:10;19.10;99.90
30385;DHT22;17181;51.002;4.096;2023-06-26T04:56:37;19.10;99.90
30385;DHT22;17181;51.002;4.096;2023-06-26T04:59:03;19.10;99.90
30385;DHT22;17181;51.002;4.096;2023-06-26T05:01:29;19.10;99.90
30385;DHT22;17181;51.002;4.096;2023-06-26T05:03:56;19.20;99.90
30385;DHT22;17181;51.002;4.096;2023-06-26T05:06:22;19.20;99.90
30385;DHT22;17181;51.002;4.096;2023-06-26T05:08:48;19.20;99.90
30385;DHT22;17181;51.002;4.096;2023-06-26T05:11:14;19.20;99.90
30385;DHT22;17181;51.002;4.096;2023-06-26T05:13:40;19.20;99.90
30385;DHT22;17181;51.002;4.096;2023-06-26T05:16:07;19.30;99.90
30385;DHT22;17181;51.002;4.096;2023-06-26T05:18:35;19.30;99.90
30385;DHT22;17181;51.002;4.096;2023-06-26T05:21:01;19.30;99.90
30385;DHT22;17181;51.002;4.096;2023-06-26T05:23:31;19.30;99.90
30385;DHT22;17181;51.002;4.096;2023-06-26T05:25:57;19.30;99.90
30385;DHT22;17181;51.002;4.096;2023-06-26T05:28:24;19.40;99.90
30385;DHT22;17181;51.002;4.096;2023-06-26T05:30:51;19.40;99.90
30385;DHT22;17181;51.002;4.096;2023-06-26T05:33:18;19.40;99.90
30385;DHT22;17181;51.002;4.096;2023-06-26T05:35:45;19.50;99.90
30385;DHT22;17181;51.002;4.096;2023-06-26T05:38:12;19.50;99.90
30385;DHT22;17181;51.002;4.096;2023-06-26T05:40:39;19.60;99.90
30385;DHT22;17181;51.002;4.096;2023-06-26T05:43:06;19.60;99.80
30385;DHT22;17181;51.002;4.096;2023-06-26T05:45:32;19.60;99.40
30385;DHT22;17181;51.002;4.096;2023-06-26T05:47:58;19.60;99.20
30385;DHT22;17181;51.002;4.096;2023-06-26T05:50:24;19.70;99.20
30385;DHT22;17181;51.002;4.096;2023-06-26T05:52:50;19.70;99.00
30385;DHT22;17181;51.002;4.096;2023-06-26T05:55:16;19.80;98.90
30385;DHT22;17181;51.002;4.096;2023-06-26T05:57:42;19.80;98.70
30385;DHT22;17181;51.002;4.096;2023-06-26T06:00:09;19.90;98.60
30385;DHT22;17181;51.002;4.096;2023-06-26T06:02:40;19.90;98.20
30385;DHT22;17181;51.002;4.096;2023-06-26T06:05:07;19.90;98.00
30385;DHT22;17181;51.002;4.096;2023-06-26T06:07:33;19.90;98.00
30385;DHT22;17181;51.002;4.096;2023-06-26T06:10:00;20.00;97.80
30385;DHT22;17181;51.002;4.096;2023-06-26T06:12:26;20.00;97.80
30385;DHT22;17181;51.002;4.096;2023-06-26T06:14:52;20.00;97.90
30385;DHT22;17181;51.002;4.096;2023-06-26T06:17:19;20.10;97.50
30385;DHT22;17181;51.002;4.096;2023-06-26T06:19:45;20.10;97.20
30385;DHT22;17181;51.002;4.096;2023-06-26T06:22:11;20.00;97.20
30385;DHT22;17181;51.002;4.096;2023-06-26T06:24:37;20.10;97.20
30385;DHT22;17181;51.002;4.096;2023-06-26T06:27:02;20.10;97.30
30385;DHT22;17181;51.002;4.096;2023-06-26T06:29:28;20.20;97.20
30385;DHT22;17181;51.002;4.096;2023-06-26T06:31:54;20.20;96.80
30385;DHT22;17181;51.002;4.096;2023-06-26T06:34:20;20.30;96.50
30385;DHT22;17181;51.002;4.096;2023-06-26T06:36:46;20.30;96.60
30385;DHT22;17181;51.002;4.096;2023-06-26T06:39:12;20.30;96.50
30385;DHT22;17181;51.002;4.096;2023-06-26T06:41:38;20.40;96.60
30385;DHT22;17181;51.002;4.096;2023-06-26T06:44:05;20.50;96.40
30385;DHT22;17181;51.002;4.096;2023-06-26T06:46:31;20.50;96.30
30385;DHT22;17181;51.002;4.096;2023-06-26T06:48:56;20.70;96.00
30385;DHT22;17181;51.002;4.096;2023-06-26T06:51:22;20.60;96.00
30385;DHT22;17181;51.002;4.096;2023-06-26T06:53:48;20.70;95.50
30385;DHT22;17181;51.002;4.096;2023-06-26T06:56:14;20.70;95.60
30385;DHT22;17181;51.002;4.096;2023-06-26T06:58:39;20.70;95.60
30385;DHT22;17181;51.002;4.096;2023-06-26T07:01:11;20.80;95.40
30385;DHT22;17181;51.002;4.096;2023-06-26T07:03:36;20.90;95.10
30385;DHT22;17181;51.002;4.096;2023-06-26T07:06:02;20.90;95.00
30385;DHT22;17181;51.002;4.096;2023-06-26T07:08:29;21.00;94.90
30385;DHT22;17181;51.002;4.096;2023-06-26T07:10:54;21.10;95.10
30385;DHT22;17181;51.002;4.096;2023-06-26T07:13:22;21.10;94.40
30385;DHT22;17181;51.002;4.096;2023-06-26T07:15:48;21.10;94.40
30385;DHT22;17181;51.002;4.096;2023-06-26T07:18:14;21.20;94.30
30385;DHT22;17181;51.002;4.096;2023-06-26T07:20:40;21.20;93.90
30385;DHT22;17181;51.002;4.096;2023-06-26T07:23:06;21.30;93.80
30385;DHT22;17181;51.002;4.096;2023-06-26T07:25:31;21.40;94.00
30385;DHT22;17181;51.002;4.096;2023-06-26T07:27:57;21.40;94.00
30385;DHT22;17181;51.002;4.096;2023-06-26T07:30:23;21.40;93.90
30385;DHT22;17181;51.002;4.096;2023-06-26T07:32:49;21.40;93.70
30385;DHT22;17181;51.002;4.096;2023-06-26T07:35:18;21.40;93.80
30385;DHT22;17181;51.002;4.096;2023-06-26T07:37:45;21.40;93.70
30385;DHT22;17181;51.002;4.096;2023-06-26T07:40:11;21.40;93.00
30385;DHT22;17181;51.002;4.096;2023-06-26T07:42:38;21.50;92.50
30385;DHT22;17181;51.002;4.096;2023-06-26T07:45:06;21.50;91.90
30385;DHT22;17181;51.002;4.096;2023-06-26T07:47:39;21.50;91.70
30385;DHT22;17181;51.002;4.096;2023-06-26T07:50:07;21.60;91.60
30385;DHT22;17181;51.002;4.096;2023-06-26T07:52:32;21.70;91.00
30385;DHT22;17181;51.002;4.096;2023-06-26T07:54:58;21.70;90.50
30385;DHT22;17181;51.002;4.096;2023-06-26T07:57:24;21.80;90.40
30385;DHT22;17181;51.002;4.096;2023-06-26T07:59:50;21.80;90.30
30385;DHT22;17181;51.002;4.096;2023-06-26T08:02:16;21.90;90.20
30385;DHT22;17181;51.002;4.096;2023-06-26T08:04:43;22.00;89.50
30385;DHT22;17181;51.002;4.096;2023-06-26T08:07:09;22.00;89.40
30385;DHT22;17181;51.002;4.096;2023-06-26T08:09:34;22.10;89.10
30385;DHT22;17181;51.002;4.096;2023-06-26T08:12:00;22.10;88.00
30385;DHT22;17181;51.002;4.096;2023-06-26T08:14:27;22.10;88.10
30385;DHT22;17181;51.002;4.096;2023-06-26T08:16:53;22.20;88.10
30385;DHT22;17181;51.002;4.096;2023-06-26T08:19:19;22.20;87.70
30385;DHT22;17181;51.002;4.096;2023-06-26T08:21:45;22.30;86.60
30385;DHT22;17181;51.002;4.096;2023-06-26T08:24:12;22.30;85.70
30385;DHT22;17181;51.002;4.096;2023-06-26T08:26:39;22.30;86.00
30385;DHT22;17181;51.002;4.096;2023-06-26T08:29:05;22.30;86.00
30385;DHT22;17181;51.002;4.096;2023-06-26T08:31:37;22.50;85.60
30385;DHT22;17181;51.002;4.096;2023-06-26T08:34:04;22.50;85.20
30385;DHT22;17181;51.002;4.096;2023-06-26T08:36:31;22.50;85.30
30385;DHT22;17181;51.002;4.096;2023-06-26T08:38:57;22.50;84.60
30385;DHT22;17181;51.002;4.096;2023-06-26T08:41:23;22.60;84.30
30385;DHT22;17181;51.002;4.096;2023-06-26T08:43:49;22.60;84.30
30385;DHT22;17181;51.002;4.096;2023-06-26T08:46:19;22.70;83.60
30385;DHT22;17181;51.002;4.096;2023-06-26T08:49:01;22.80;82.80
30385;DHT22;17181;51.002;4.096;2023-06-26T08:51:29;22.80;80.90
30385;DHT22;17181;51.002;4.096;2023-06-26T08:54:00;22.80;79.60
30385;DHT22;17181;51.002;4.096;2023-06-26T08:56:36;22.80;80.70
30385;DHT22;17181;51.002;4.096;2023-06-26T08:59:03;22.80;80.90
30385;DHT22;17181;51.002;4.096;2023-06-26T09:01:29;22.90;80.70
30385;DHT22;17181;51.002;4.096;2023-06-26T09:03:55;22.90;78.90
30385;DHT22;17181;51.002;4.096;2023-06-26T09:06:21;22.90;77.70
30385;DHT22;17181;51.002;4.096;2023-06-26T09:08:47;22.90;76.40
30385;DHT22;17181;51.002;4.096;2023-06-26T09:11:13;22.80;76.50
30385;DHT22;17181;51.002;4.096;2023-06-26T09:13:39;22.90;78.20
30385;DHT22;17181;51.002;4.096;2023-06-26T09:16:07;22.90;77.80
30385;DHT22;17181;51.002;4.096;2023-06-26T09:18:33;23.00;77.80
30385;DHT22;17181;51.002;4.096;2023-06-26T09:20:59;23.00;76.70
30385;DHT22;17181;51.002;4.096;2023-06-26T09:23:25;22.90;76.40
30385;DHT22;17181;51.002;4.096;2023-06-26T09:25:52;22.90;76.90
30385;DHT22;17181;51.002;4.096;2023-06-26T09:28:18;22.90;76.80
30385;DHT22;17181;51.002;4.096;2023-06-26T09:30:45;22.90;76.50
30385;DHT22;17181;51.002;4.096;2023-06-26T09:35:40;22.90;74.90
30385;DHT22;17181;51.002;4.096;2023-06-26T09:38:07;22.90;74.20
30385;DHT22;17181;51.002;4.096;2023-06-26T09:40:33;22.90;73.90
30385;DHT22;17181;51.002;4.096;2023-06-26T09:43:09;23.00;73.40
30385;DHT22;17181;51.002;4.096;2023-06-26T09:45:35;23.00;73.50
30385;DHT22;17181;51.002;4.096;2023-06-26T09:48:04;23.00;74.20
30385;DHT22;17181;51.002;4.096;2023-06-26T09:50:33;23.10;74.80
30385;DHT22;17181;51.002;4.096;2023-06-26T09:53:11;23.00;72.10
30385;DHT22;17181;51.002;4.096;2023-06-26T09:55:39;22.90;71.80
30385;DHT22;17181;51.002;4.096;2023-06-26T09:58:11;23.00;72.50
30385;DHT22;17181;51.002;4.096;2023-06-26T10:00:44;23.10;72.10
30385;DHT22;17181;51.002;4.096;2023-06-26T10:03:13;23.20;71.20
30385;DHT22;17181;51.002;4.096;2023-06-26T10:05:40;23.30;70.90
30385;DHT22;17181;51.002;4.096;2023-06-26T10:08:06;23.20;71.70
30385;DHT22;17181;51.002;4.096;2023-06-26T10:10:34;23.20;71.70
30385;DHT22;17181;51.002;4.096;2023-06-26T10:13:11;23.20;72.30
30385;DHT22;17181;51.002;4.096;2023-06-26T10:15:44;23.10;70.90
30385;DHT22;17181;51.002;4.096;2023-06-26T10:18:12;23.10;71.40
30385;DHT22;17181;51.002;4.096;2023-06-26T10:20:39;23.10;71.10
30385;DHT22;17181;51.002;4.096;2023-06-26T10:23:07;23.20;70.00
30385;DHT22;17181;51.002;4.096;2023-06-26T10:25:34;23.20;68.10
30385;DHT22;17181;51.002;4.096;2023-06-26T10:28:03;23.10;68.40
30385;DHT22;17181;51.002;4.096;2023-06-26T10:30:33;23.20;68.90
30385;DHT22;17181;51.002;4.096;2023-06-26T10:33:00;23.30;68.30
30385;DHT22;17181;51.002;4.096;2023-06-26T10:35:26;23.40;69.10
30385;DHT22;17181;51.002;4.096;2023-06-26T10:38:00;23.50;66.30
30385;DHT22;17181;51.002;4.096;2023-06-26T10:40:28;23.50;64.20
30385;DHT22;17181;51.002;4.096;2023-06-26T10:43:10;23.40;64.70
30385;DHT22;17181;51.002;4.096;2023-06-26T10:45:37;23.40;64.90
30385;DHT22;17181;51.002;4.096;2023-06-26T10:48:08;23.40;65.10
30385;DHT22;17181;51.002;4.096;2023-06-26T10:50:33;23.50;65.60
30385;DHT22;17181;51.002;4.096;2023-06-26T10:55:58;23.60;65.50
30385;DHT22;17181;51.002;4.096;2023-06-26T11:03:44;23.80;65.30
30385;DHT22;17181;51.002;4.096;2023-06-26T11:08:53;24.00;66.10
30385;DHT22;17181;51.002;4.096;2023-06-26T11:11:20;24.20;65.20
30385;DHT22;17181;51.002;4.096;2023-06-26T11:13:47;24.40;62.50
30385;DHT22;17181;51.002;4.096;2023-06-26T11:16:14;24.40;61.30
30385;DHT22;17181;51.002;4.096;2023-06-26T11:18:41;24.40;61.10
30385;DHT22;17181;51.002;4.096;2023-06-26T11:21:12;24.30;58.50
30385;DHT22;17181;51.002;4.096;2023-06-26T11:23:40;24.20;59.40
30385;DHT22;17181;51.002;4.096;2023-06-26T11:26:21;24.10;59.40
30385;DHT22;17181;51.002;4.096;2023-06-26T11:28:54;24.10;59.80
30385;DHT22;17181;51.002;4.096;2023-06-26T11:31:34;24.10;59.10
30385;DHT22;17181;51.002;4.096;2023-06-26T11:34:01;24.10;58.30
30385;DHT22;17181;51.002;4.096;2023-06-26T11:36:27;24.00;58.30
30385;DHT22;17181;51.002;4.096;2023-06-26T11:41:20;24.00;58.00
30385;DHT22;17181;51.002;4.096;2023-06-26T11:43:46;24.00;57.30
30385;DHT22;17181;51.002;4.096;2023-06-26T11:46:12;24.00;57.70
30385;DHT22;17181;51.002;4.096;2023-06-26T11:48:39;24.10;57.80
30385;DHT22;17181;51.002;4.096;2023-06-26T11:51:05;24.20;58.50
30385;DHT22;17181;51.002;4.096;2023-06-26T11:53:31;24.40;57.80
30385;DHT22;17181;51.002;4.096;2023-06-26T11:55:56;24.40;56.80
30385;DHT22;17181;51.002;4.096;2023-06-26T11:58:22;24.40;57.30
30385;DHT22;17181;51.002;4.096;2023-06-26T12:00:48;24.30;56.90
30385;DHT22;17181;51.002;4.096;2023-06-26T12:03:14;24.20;57.10
30385;DHT22;17181;51.002;4.096;2023-06-26T12:05:41;24.10;57.30
30385;DHT22;17181;51.002;4.096;2023-06-26T12:08:07;24.20;58.40
30385;DHT22;17181;51.002;4.096;2023-06-26T12:10:33;24.10;59.20
30385;DHT22;17181;51.002;4.096;2023-06-26T12:12:59;24.20;59.10
30385;DHT22;17181;51.002;4.096;2023-06-26T12:15:28;24.40;59.10
30385;DHT22;17181;51.002;4.096;2023-06-26T12:17:54;24.70;58.50
30385;DHT22;17181;51.002;4.096;2023-06-26T12:20:24;24.80;58.10
30385;DHT22;17181;51.002;4.096;2023-06-26T12:22:51;24.90;56.80
30385;DHT22;17181;51.002;4.096;2023-06-26T12:25:24;24.80;57.00
30385;DHT22;17181;51.002;4.096;2023-06-26T12:27:50;24.80;57.10
30385;DHT22;17181;51.002;4.096;2023-06-26T12:30:16;24.70;57.50
30385;DHT22;17181;51.002;4.096;2023-06-26T12:32:45;24.70;58.00
30385;DHT22;17181;51.002;4.096;2023-06-26T12:35:11;24.70;58.10
30385;DHT22;17181;51.002;4.096;2023-06-26T12:37:37;24.80;58.50
30385;DHT22;17181;51.002;4.096;2023-06-26T12:40:17;24.90;58.10
30385;DHT22;17181;51.002;4.096;2023-06-26T12:42:45;25.00;57.90
30385;DHT22;17181;51.002;4.096;2023-06-26T12:45:12;25.10;57.40
30385;DHT22;17181;51.002;4.096;2023-06-26T12:47:38;25.20;57.50
30385;DHT22;17181;51.002;4.096;2023-06-26T12:50:06;25.30;56.60
30385;DHT22;17181;51.002;4.096;2023-06-26T12:52:32;25.20;55.60
30385;DHT22;17181;51.002;4.096;2023-06-26T12:54:58;25.10;55.90
30385;DHT22;17181;51.002;4.096;2023-06-26T12:57:24;25.00;56.20
30385;DHT22;17181;51.002;4.096;2023-06-26T12:59:51;25.00;57.00
30385;DHT22;17181;51.002;4.096;2023-06-26T13:02:16;25.00;56.50
30385;DHT22;17181;51.002;4.096;2023-06-26T13:04:42;24.90;56.80
30385;DHT22;17181;51.002;4.096;2023-06-26T13:07:10;24.90;57.50
30385;DHT22;17181;51.002;4.096;2023-06-26T13:09:36;24.90;57.00
30385;DHT22;17181;51.002;4.096;2023-06-26T13:12:04;24.90;56.60
30385;DHT22;17181;51.002;4.096;2023-06-26T13:14:30;25.00;56.10
30385;DHT22;17181;51.002;4.096;2023-06-26T13:16:56;24.90;56.70
30385;DHT22;17181;51.002;4.096;2023-06-26T13:19:22;24.90;57.00
30385;DHT22;17181;51.002;4.096;2023-06-26T13:21:48;24.80;57.30
30385;DHT22;17181;51.002;4.096;2023-06-26T13:24:14;24.80;57.60
30385;DHT22;17181;51.002;4.096;2023-06-26T13:26:39;24.80;57.20
30385;DHT22;17181;51.002;4.096;2023-06-26T13:29:06;24.80;57.70
30385;DHT22;17181;51.002;4.096;2023-06-26T13:31:32;25.10;57.40
30385;DHT22;17181;51.002;4.096;2023-06-26T13:33:58;25.70;56.70
30385;DHT22;17181;51.002;4.096;2023-06-26T13:36:24;26.30;56.10
30385;DHT22;17181;51.002;4.096;2023-06-26T13:38:50;26.70;55.90
30385;DHT22;17181;51.002;4.096;2023-06-26T13:41:22;26.80;55.60
30385;DHT22;17181;51.002;4.096;2023-06-26T13:43:48;26.70;54.70
30385;DHT22;17181;51.002;4.096;2023-06-26T13:46:13;26.80;54.80
30385;DHT22;17181;51.002;4.096;2023-06-26T13:48:39;27.20;55.60
30385;DHT22;17181;51.002;4.096;2023-06-26T13:51:05;27.60;55.20
30385;DHT22;17181;51.002;4.096;2023-06-26T13:53:31;27.80;54.40
30385;DHT22;17181;51.002;4.096;2023-06-26T13:55:56;27.60;52.50
30385;DHT22;17181;51.002;4.096;2023-06-26T13:58:22;27.10;52.30
30385;DHT22;17181;51.002;4.096;2023-06-26T14:00:52;26.80;52.90
30385;DHT22;17181;51.002;4.096;2023-06-26T14:03:18;26.70;52.90
30385;DHT22;17181;51.002;4.096;2023-06-26T14:05:44;26.60;53.40
30385;DHT22;17181;51.002;4.096;2023-06-26T14:08:10;26.50;53.00
30385;DHT22;17181;51.002;4.096;2023-06-26T14:10:36;26.40;52.80
30385;DHT22;17181;51.002;4.096;2023-06-26T14:13:03;26.40;52.90
30385;DHT22;17181;51.002;4.096;2023-06-26T14:15:29;26.30;52.70
30385;DHT22;17181;51.002;4.096;2023-06-26T14:17:55;26.20;53.20
30385;DHT22;17181;51.002;4.096;2023-06-26T14:20:22;26.10;53.40
30385;DHT22;17181;51.002;4.096;2023-06-26T14:22:49;25.90;53.40
30385;DHT22;17181;51.002;4.096;2023-06-26T14:25:15;25.70;53.80
30385;DHT22;17181;51.002;4.096;2023-06-26T14:27:41;25.50;54.30
30385;DHT22;17181;51.002;4.096;2023-06-26T14:30:08;25.30;54.30
30385;DHT22;17181;51.002;4.096;2023-06-26T14:32:34;25.20;54.60
30385;DHT22;17181;51.002;4.096;2023-06-26T14:35:01;25.10;54.80
30385;DHT22;17181;51.002;4.096;2023-06-26T14:37:28;25.20;55.30
30385;DHT22;17181;51.002;4.096;2023-06-26T14:39:54;25.20;54.90
30385;DHT22;17181;51.002;4.096;2023-06-26T14:42:20;25.20;54.10
30385;DHT22;17181;51.002;4.096;2023-06-26T14:44:46;25.30;54.20
30385;DHT22;17181;51.002;4.096;2023-06-26T14:47:16;25.30;54.00
30385;DHT22;17181;51.002;4.096;2023-06-26T14:49:42;25.30;54.10
30385;DHT22;17181;51.002;4.096;2023-06-26T14:52:08;25.50;52.90
30385;DHT22;17181;51.002;4.096;2023-06-26T14:54:35;25.80;52.20
30385;DHT22;17181;51.002;4.096;2023-06-26T14:57:05;26.30;52.80
30385;DHT22;17181;51.002;4.096;2023-06-26T14:59:31;26.80;50.80
30385;DHT22;17181;51.002;4.096;2023-06-26T15:01:57;27.00;50.00
30385;DHT22;17181;51.002;4.096;2023-06-26T15:04:23;27.00;50.40
30385;DHT22;17181;51.002;4.096;2023-06-26T15:06:49;26.90;50.40
30385;DHT22;17181;51.002;4.096;2023-06-26T15:09:14;26.80;51.20
30385;DHT22;17181;51.002;4.096;2023-06-26T15:11:40;26.90;51.70
30385;DHT22;17181;51.002;4.096;2023-06-26T15:14:06;27.00;51.50
30385;DHT22;17181;51.002;4.096;2023-06-26T15:16:32;27.10;51.50
30385;DHT22;17181;51.002;4.096;2023-06-26T15:18:58;27.20;51.00
30385;DHT22;17181;51.002;4.096;2023-06-26T15:21:23;27.20;50.00
30385;DHT22;17181;51.002;4.096;2023-06-26T15:23:50;27.10;49.80
30385;DHT22;17181;51.002;4.096;2023-06-26T15:26:15;26.90;49.50
30385;DHT22;17181;51.002;4.096;2023-06-26T15:28:41;26.50;50.30
30385;DHT22;17181;51.002;4.096;2023-06-26T15:31:07;26.30;51.20
30385;DHT22;17181;51.002;4.096;2023-06-26T15:33:33;26.00;51.80
30385;DHT22;17181;51.002;4.096;2023-06-26T15:35:58;25.90;52.50
30385;DHT22;17181;51.002;4.096;2023-06-26T15:38:24;25.70;53.10
30385;DHT22;17181;51.002;4.096;2023-06-26T15:40:50;25.50;54.20
30385;DHT22;17181;51.002;4.096;2023-06-26T15:43:16;25.30;54.20
30385;DHT22;17181;51.002;4.096;2023-06-26T15:45:41;25.20;54.50
30385;DHT22;17181;51.002;4.096;2023-06-26T15:48:07;25.10;55.30